Time,TemperatureF,DewpointF,PressureIn,WindDirection,WindDirectionDegrees,WindSpeedMPH,WindSpeedGustMPH,Humidity,HourlyPrecipIn,Conditions,Clouds,dailyrainin,SolarRadiationWatts/m^2,SoftwareType,DateUTC
2013-05-26 00:01:00,46.0,28.0,29.90,ENE,78,5.0,6.0,50,-99.99,,,-99.99,0.000000,,2013-05-26 06:01:00,
2013-05-26 00:11:00,46.0,28.0,29.90,East,91,5.0,6.0,48,-99.99,,,-99.99,-0.100000,,2013-05-26 06:11:00,
2013-05-26 00:21:00,45.0,28.0,29.90,East,90,4.0,7.0,51,-99.99,,,-99.99,-0.100000,,2013-05-26 06:21:00,
2013-05-26 00:32:00,45.0,28.0,29.90,ESE,123,5.0,6.0,50,-99.99,,,-99.99,-0.100000,,2013-05-26 06:32:00,
2013-05-26 00:41:00,45.0,28.0,29.89,East,95,4.0,6.0,50,-99.99,,,-99.99,-0.200000,,2013-05-26 06:41:00,
2013-05-26 00:51:00,46.0,28.0,29.89,ENE,77,3.0,6.0,48,-99.99,,,-99.99,0.000000,,2013-05-26 06:51:00,
2013-05-26 01:01:00,45.0,28.0,29.89,West,279,1.0,2.0,50,-99.99,,,-99.99,0.000000,,2013-05-26 07:01:00,
2013-05-26 01:11:00,45.0,28.0,29.89,SSE,163,1.0,3.0,49,-99.99,,,-99.99,0.000000,,2013-05-26 07:11:00,
2013-05-26 01:21:00,46.0,27.0,29.89,ESE,123,4.0,5.0,47,-99.99,,,-99.99,-0.100000,,2013-05-26 07:21:00,
2013-05-26 01:31:00,41.0,33.0,29.90,SSE,149,2.0,2.0,72,-99.99,,,-99.99,-0.100000,,2013-05-26 07:31:00,
2013-05-26 01:42:00,41.0,32.0,29.90,WSW,252,2.0,3.0,70,-99.99,,,-99.99,0.000000,,2013-05-26 07:42:00,
2013-05-26 01:52:00,43.0,32.0,29.90,WSW,253,2.0,2.0,64,-99.99,,,-99.99,0.000000,,2013-05-26 07:52:00,
2013-05-26 02:01:00,44.0,31.0,29.90,ESE,123,4.0,5.0,60,-99.99,,,-99.99,-0.100000,,2013-05-26 08:01:00,
2013-05-26 02:11:00,42.0,30.0,29.90,ESE,117,2.0,4.0,60,-99.99,,,-99.99,0.000000,,2013-05-26 08:11:00,
2013-05-26 02:21:00,43.0,28.0,29.90,SE,143,3.0,4.0,56,-99.99,,,-99.99,0.000000,,2013-05-26 08:21:00,
2013-05-26 02:31:00,43.0,28.0,29.89,ESE,119,2.0,2.0,55,-99.99,,,-99.99,-0.100000,,2013-05-26 08:31:00,
2013-05-26 02:41:00,42.0,29.0,29.89,ESE,108,3.0,4.0,58,-99.99,,,-99.99,0.000000,,2013-05-26 08:41:00,
2013-05-26 02:52:00,41.0,29.0,29.89,ENE,73,3.0,4.0,61,-99.99,,,-99.99,-0.200000,,2013-05-26 08:52:00,
2013-05-26 03:01:00,40.0,29.0,29.89,East,96,4.0,6.0,64,-99.99,,,-99.99,0.000000,,2013-05-26 09:01:00,
2013-05-26 03:11:00,40.0,29.0,29.90,ENE,76,3.0,4.0,62,-99.99,,,-99.99,-0.100000,,2013-05-26 09:11:00,
2013-05-26 03:21:00,41.0,28.0,29.89,East,96,4.0,5.0,59,-99.99,,,-99.99,-0.100000,,2013-05-26 09:21:00,
2013-05-26 03:33:00,42.0,29.0,29.89,East,94,5.0,8.0,59,-99.99,,,-99.99,0.000000,,2013-05-26 09:33:00,
2013-05-26 03:42:00,44.0,28.0,29.89,East,86,7.0,8.0,54,-99.99,,,-99.99,-0.100000,,2013-05-26 09:42:00,
2013-05-26 03:52:00,43.0,29.0,29.89,ENE,75,4.0,6.0,56,-99.99,,,-99.99,0.000000,,2013-05-26 09:52:00,
2013-05-26 04:02:00,43.0,29.0,29.88,East,83,4.0,6.0,57,-99.99,,,-99.99,0.000000,,2013-05-26 10:02:00,
2013-05-26 04:11:00,44.0,29.0,29.88,ENE,76,4.0,6.0,56,-99.99,,,-99.99,0.100000,,2013-05-26 10:11:00,
2013-05-26 04:22:00,44.0,29.0,29.89,ENE,68,3.0,4.0,56,-99.99,,,-99.99,0.000000,,2013-05-26 10:22:00,
2013-05-26 04:32:00,42.0,31.0,29.89,NNW,348,3.0,3.0,63,-99.99,,,-99.99,0.000000,,2013-05-26 10:32:00,
2013-05-26 04:42:00,41.0,31.0,29.89,North,352,2.0,3.0,67,-99.99,,,-99.99,-0.100000,,2013-05-26 10:42:00,
2013-05-26 04:52:00,40.0,31.0,29.89,ESE,114,3.0,4.0,70,-99.99,,,-99.99,0.000000,,2013-05-26 10:52:00,
2013-05-26 05:02:00,42.0,31.0,29.88,East,90,7.0,8.0,64,-99.99,,,-99.99,0.000000,,2013-05-26 11:02:00,
2013-05-26 05:11:00,43.0,30.0,29.88,East,101,9.0,10.0,58,-99.99,,,-99.99,0.000000,,2013-05-26 11:11:00,
2013-05-26 05:22:00,45.0,29.0,29.87,East,84,6.0,9.0,53,-99.99,,,-99.99,0.000000,,2013-05-26 11:22:00,
2013-05-26 05:32:00,46.0,29.0,29.87,ENE,58,7.0,10.0,51,-99.99,,,-99.99,-0.200000,,2013-05-26 11:32:00,
2013-05-26 05:42:00,45.0,30.0,29.88,NNW,346,6.0,11.0,54,-99.99,,,-99.99,0.000000,,2013-05-26 11:42:00,
2013-05-26 05:52:00,44.0,33.0,29.88,NNW,336,6.0,8.0,64,-99.99,,,-99.99,0.000000,,2013-05-26 11:52:00,
2013-05-26 06:01:00,44.0,33.0,29.89,West,277,2.0,6.0,67,-99.99,,,-99.99,0.200000,,2013-05-26 12:01:00,
2013-05-26 06:11:00,41.0,33.0,29.90,SSE,156,3.0,4.0,73,-99.99,,,-99.99,1.000000,,2013-05-26 12:11:00,
2013-05-26 06:21:00,40.0,33.0,29.90,SSW,194,3.0,4.0,77,-99.99,,,-99.99,2.300000,,2013-05-26 12:21:00,
2013-05-26 06:31:00,41.0,33.0,29.90,SSE,158,2.0,3.0,73,-99.99,,,-99.99,4.900000,,2013-05-26 12:31:00,
2013-05-26 06:41:00,41.0,33.0,29.90,South,191,3.0,4.0,74,-99.99,,,-99.99,9.100000,,2013-05-26 12:41:00,
2013-05-26 06:52:00,43.0,34.0,29.90,NW,307,2.0,3.0,69,-99.99,,,-99.99,17.000000,,2013-05-26 12:52:00,
2013-05-26 07:02:00,41.0,34.0,29.90,South,183,3.0,4.0,76,-99.99,,,-99.99,28.100000,,2013-05-26 13:02:00,
2013-05-26 07:11:00,42.0,34.0,29.90,SW,232,3.0,4.0,73,-99.99,,,-99.99,37.599998,,2013-05-26 13:11:00,
2013-05-26 07:21:00,42.0,34.0,29.90,WSW,253,6.0,8.0,71,-99.99,,,-99.99,63.700001,,2013-05-26 13:21:00,
2013-05-26 07:32:00,43.0,36.0,29.90,WSW,248,5.0,7.0,74,-99.99,,,-99.99,134.300003,,2013-05-26 13:32:00,
2013-05-26 07:41:00,45.0,36.0,29.90,SSW,206,6.0,8.0,71,-99.99,,,-99.99,109.300003,,2013-05-26 13:41:00,
2013-05-26 07:52:00,45.0,36.0,29.90,SW,234,6.0,9.0,70,-99.99,,,-99.99,129.699997,,2013-05-26 13:52:00,
2013-05-26 08:01:00,46.0,36.0,29.90,SSW,192,4.0,6.0,68,-99.99,,,-99.99,167.699997,,2013-05-26 14:01:00,
2013-05-26 08:11:00,48.0,36.0,29.90,WNW,286,2.0,3.0,63,-99.99,,,-99.99,167.699997,,2013-05-26 14:11:00,
2013-05-26 08:21:00,49.0,37.0,29.90,SW,214,5.0,6.0,63,-99.99,,,-99.99,131.300003,,2013-05-26 14:21:00,
2013-05-26 08:32:00,50.0,38.0,29.91,SW,216,4.0,5.0,63,-99.99,,,-99.99,152.100006,,2013-05-26 14:32:00,
2013-05-26 08:41:00,50.0,37.0,29.90,SSW,204,4.0,7.0,60,-99.99,,,-99.99,206.300003,,2013-05-26 14:41:00,
2013-05-26 08:51:00,51.0,37.0,29.90,SW,229,5.0,6.0,58,-99.99,,,-99.99,268.899994,,2013-05-26 14:51:00,
2013-05-26 09:01:00,52.0,38.0,29.90,SW,220,8.0,9.0,58,-99.99,,,-99.99,248.399994,,2013-05-26 15:01:00,
2013-05-26 09:11:00,52.0,37.0,29.90,SW,226,8.0,11.0,55,-99.99,,,-99.99,330.000000,,2013-05-26 15:11:00,
2013-05-26 09:22:00,53.0,38.0,29.90,WSW,241,6.0,9.0,55,-99.99,,,-99.99,314.399994,,2013-05-26 15:22:00,
2013-05-26 09:33:00,54.0,38.0,29.91,WSW,251,8.0,10.0,55,-99.99,,,-99.99,406.500000,,2013-05-26 15:33:00,
2013-05-26 09:43:00,54.0,38.0,29.91,West,267,8.0,10.0,53,-99.99,,,-99.99,420.799988,,2013-05-26 15:43:00,
2013-05-26 09:53:00,56.0,37.0,29.91,West,265,8.0,10.0,50,-99.99,,,-99.99,617.200012,,2013-05-26 15:53:00,
2013-05-26 10:03:00,57.0,36.0,29.91,WSW,256,8.0,9.0,46,-99.99,,,-99.99,579.700012,,2013-05-26 16:03:00,
2013-05-26 10:12:00,57.0,35.0,29.91,West,280,8.0,10.0,43,-99.99,,,-99.99,643.099976,,2013-05-26 16:12:00,
2013-05-26 10:23:00,58.0,35.0,29.91,WSW,254,6.0,9.0,41,-99.99,,,-99.99,556.799988,,2013-05-26 16:23:00,
2013-05-26 10:33:00,59.0,33.0,29.91,SW,230,7.0,10.0,36,-99.99,,,-99.99,625.000000,,2013-05-26 16:33:00,
2013-05-26 10:42:00,60.0,34.0,29.90,WSW,252,4.0,8.0,37,-99.99,,,-99.99,711.900024,,2013-05-26 16:42:00,
2013-05-26 10:52:00,61.0,34.0,29.90,West,263,4.0,6.0,37,-99.99,,,-99.99,581.099976,,2013-05-26 16:52:00,
2013-05-26 11:02:00,61.0,33.0,29.90,West,277,6.0,8.0,35,-99.99,,,-99.99,793.799988,,2013-05-26 17:02:00,
2013-05-26 11:11:00,62.0,33.0,29.90,West,265,6.0,8.0,33,-99.99,,,-99.99,815.000000,,2013-05-26 17:11:00,
2013-05-26 11:22:00,63.0,32.0,29.91,WNW,282,6.0,8.0,31,-99.99,,,-99.99,819.000000,,2013-05-26 17:22:00,
2013-05-26 11:32:00,64.0,34.0,29.90,West,273,7.0,11.0,32,-99.99,,,-99.99,810.000000,,2013-05-26 17:32:00,
2013-05-26 11:42:00,64.0,38.0,29.90,WSW,242,6.0,10.0,38,-99.99,,,-99.99,637.799988,,2013-05-26 17:42:00,
2013-05-26 11:52:00,65.0,37.0,29.91,WSW,244,9.0,13.0,36,-99.99,,,-99.99,880.000000,,2013-05-26 17:52:00,
2013-05-26 12:01:00,64.0,40.0,29.91,WSW,258,9.0,13.0,41,-99.99,,,-99.99,727.599976,,2013-05-26 18:01:00,
2013-05-26 12:11:00,63.0,37.0,29.91,WSW,250,8.0,9.0,37,-99.99,,,-99.99,917.000000,,2013-05-26 18:11:00,
2013-05-26 12:21:00,65.0,36.0,29.91,WSW,243,7.0,11.0,34,-99.99,,,-99.99,942.000000,,2013-05-26 18:21:00,
2013-05-26 12:31:00,65.0,33.0,29.91,SW,227,6.0,8.0,30,-99.99,,,-99.99,967.000000,,2013-05-26 18:31:00,
2013-05-26 12:41:00,66.0,30.0,29.91,WSW,246,7.0,10.0,26,-99.99,,,-99.99,987.000000,,2013-05-26 18:41:00,
2013-05-26 12:52:00,67.0,30.0,29.90,SW,227,5.0,10.0,25,-99.99,,,-99.99,780.000000,,2013-05-26 18:52:00,
2013-05-26 13:01:00,68.0,29.0,29.90,SSW,212,8.0,12.0,23,-99.99,,,-99.99,872.000000,,2013-05-26 19:01:00,
2013-05-26 13:11:00,68.0,29.0,29.90,WSW,249,8.0,10.0,23,-99.99,,,-99.99,813.000000,,2013-05-26 19:11:00,
2013-05-26 13:21:00,68.0,29.0,29.90,WSW,240,5.0,9.0,23,-99.99,,,-99.99,515.299988,,2013-05-26 19:21:00,
2013-05-26 13:31:00,68.0,29.0,29.90,WSW,247,8.0,11.0,23,-99.99,,,-99.99,427.899994,,2013-05-26 19:31:00,
2013-05-26 13:41:00,67.0,30.0,29.90,West,262,6.0,9.0,24,-99.99,,,-99.99,391.000000,,2013-05-26 19:41:00,
2013-05-26 13:52:00,67.0,29.0,29.90,West,261,4.0,6.0,23,-99.99,,,-99.99,403.000000,,2013-05-26 19:52:00,
2013-05-26 14:01:00,68.0,31.0,29.90,WSW,247,5.0,7.0,25,-99.99,,,-99.99,403.399994,,2013-05-26 20:01:00,
2013-05-26 14:11:00,69.0,32.0,29.90,WSW,258,8.0,11.0,26,-99.99,,,-99.99,679.299988,,2013-05-26 20:11:00,
2013-05-26 14:21:00,69.0,32.0,29.89,SW,230,7.0,11.0,24,-99.99,,,-99.99,784.799988,,2013-05-26 20:21:00,
2013-05-26 14:32:00,69.0,33.0,29.89,WSW,246,7.0,11.0,26,-99.99,,,-99.99,519.500000,,2013-05-26 20:32:00,
2013-05-26 14:41:00,69.0,30.0,29.89,SSW,195,5.0,7.0,24,-99.99,,,-99.99,525.799988,,2013-05-26 20:41:00,
2013-05-26 14:52:00,69.0,33.0,29.88,WSW,239,6.0,11.0,25,-99.99,,,-99.99,683.400024,,2013-05-26 20:52:00,
2013-05-26 15:01:00,70.0,32.0,29.88,SW,225,6.0,12.0,25,-99.99,,,-99.99,664.200012,,2013-05-26 21:01:00,
2013-05-26 15:11:00,70.0,33.0,29.88,West,274,6.0,9.0,25,-99.99,,,-99.99,656.200012,,2013-05-26 21:11:00,
2013-05-26 15:22:00,71.0,32.0,29.88,SW,222,8.0,11.0,24,-99.99,,,-99.99,784.500000,,2013-05-26 21:22:00,
2013-05-26 15:33:00,71.0,31.0,29.88,West,263,6.0,10.0,23,-99.99,,,-99.99,800.000000,,2013-05-26 21:33:00,
2013-05-26 15:43:00,71.0,31.0,29.88,SW,215,7.0,9.0,22,-99.99,,,-99.99,660.299988,,2013-05-26 21:43:00,
2013-05-26 15:53:00,71.0,32.0,29.88,WSW,239,7.0,10.0,23,-99.99,,,-99.99,423.500000,,2013-05-26 21:53:00,
2013-05-26 16:02:00,71.0,32.0,29.87,SSW,203,7.0,10.0,23,-99.99,,,-99.99,466.500000,,2013-05-26 22:02:00,
2013-05-26 16:12:00,70.0,32.0,29.87,WSW,257,6.0,10.0,24,-99.99,,,-99.99,485.299988,,2013-05-26 22:12:00,
2013-05-26 16:22:00,70.0,32.0,29.87,WSW,256,8.0,10.0,24,-99.99,,,-99.99,401.000000,,2013-05-26 22:22:00,
2013-05-26 16:33:00,70.0,31.0,29.87,WSW,244,7.0,11.0,23,-99.99,,,-99.99,460.600006,,2013-05-26 22:33:00,
2013-05-26 16:42:00,70.0,32.0,29.87,WSW,248,5.0,9.0,24,-99.99,,,-99.99,472.799988,,2013-05-26 22:42:00,
2013-05-26 16:53:00,71.0,30.0,29.87,WSW,248,6.0,9.0,22,-99.99,,,-99.99,678.599976,,2013-05-26 22:53:00,
2013-05-26 17:02:00,71.0,30.0,29.87,WSW,258,5.0,7.0,22,-99.99,,,-99.99,348.299988,,2013-05-26 23:02:00,
2013-05-26 17:11:00,70.0,34.0,29.87,SSW,213,8.0,11.0,26,-99.99,,,-99.99,575.299988,,2013-05-26 23:11:00,
2013-05-26 17:22:00,72.0,31.0,29.86,SSW,211,7.0,9.0,21,-99.99,,,-99.99,679.200012,,2013-05-26 23:22:00,
2013-05-26 17:32:00,71.0,31.0,29.86,SW,232,6.0,8.0,22,-99.99,,,-99.99,509.799988,,2013-05-26 23:32:00,
2013-05-26 17:42:00,71.0,31.0,29.85,West,268,8.0,13.0,22,-99.99,,,-99.99,447.000000,,2013-05-26 23:42:00,
2013-05-26 17:51:00,70.0,30.0,29.85,WSW,238,5.0,6.0,22,-99.99,,,-99.99,371.399994,,2013-05-26 23:51:00,
2013-05-26 18:02:00,71.0,33.0,29.85,WSW,250,8.0,11.0,24,-99.99,,,-99.99,512.700012,,2013-05-27 00:02:00,
2013-05-26 18:11:00,72.0,32.0,29.85,West,274,9.0,14.0,22,-99.99,,,-99.99,570.500000,,2013-05-27 00:11:00,
2013-05-26 18:21:00,71.0,32.0,29.85,WSW,247,8.0,12.0,23,-99.99,,,-99.99,514.799988,,2013-05-27 00:21:00,
2013-05-26 18:31:00,71.0,31.0,29.85,WSW,245,6.0,9.0,22,-99.99,,,-99.99,456.600006,,2013-05-27 00:31:00,
2013-05-26 18:41:00,71.0,33.0,29.84,WSW,253,9.0,12.0,24,-99.99,,,-99.99,330.600006,,2013-05-27 00:41:00,
2013-05-26 18:52:00,71.0,31.0,29.84,SSW,210,6.0,10.0,22,-99.99,,,-99.99,456.500000,,2013-05-27 00:52:00,
2013-05-26 19:01:00,71.0,33.0,29.84,WSW,250,6.0,9.0,24,-99.99,,,-99.99,422.399994,,2013-05-27 01:01:00,
2013-05-26 19:11:00,71.0,32.0,29.84,West,262,9.0,11.0,24,-99.99,,,-99.99,292.000000,,2013-05-27 01:11:00,
2013-05-26 19:21:00,69.0,30.0,29.85,West,273,9.0,11.0,23,-99.99,,,-99.99,122.099998,,2013-05-27 01:21:00,
2013-05-26 19:31:00,68.0,32.0,29.85,West,269,8.0,11.0,26,-99.99,,,-99.99,52.900002,,2013-05-27 01:31:00,
2013-05-26 19:42:00,69.0,30.0,29.84,WNW,286,12.0,15.0,23,-99.99,,,-99.99,18.900000,,2013-05-27 01:42:00,
2013-05-26 19:52:00,69.0,29.0,29.84,WNW,284,12.0,16.0,22,-99.99,,,-99.99,18.299999,,2013-05-27 01:52:00,
2013-05-26 20:01:00,68.0,29.0,29.85,West,276,8.0,12.0,23,-99.99,,,-99.99,17.299999,,2013-05-27 02:01:00,
2013-05-26 20:11:00,66.0,31.0,29.85,West,274,6.0,7.0,27,-99.99,,,-99.99,17.299999,,2013-05-27 02:11:00,
2013-05-26 20:21:00,62.0,35.0,29.85,West,272,9.0,22.0,37,-99.99,,,-99.99,22.799999,,2013-05-27 02:21:00,
2013-05-26 20:31:00,65.0,32.0,29.86,WNW,294,11.0,15.0,29,-99.99,,,-99.99,29.200001,,2013-05-27 02:31:00,
2013-05-26 20:42:00,64.0,33.0,29.87,WNW,294,9.0,13.0,31,-99.99,,,-99.99,8.400000,,2013-05-27 02:42:00,
2013-05-26 20:52:00,63.0,35.0,29.89,West,261,9.0,13.0,35,-99.99,,,-99.99,1.400000,,2013-05-27 02:52:00,
2013-05-26 21:02:00,60.0,37.0,29.90,WSW,242,9.0,11.0,42,-99.99,,,-99.99,1.000000,,2013-05-27 03:02:00,
2013-05-26 21:11:00,60.0,42.0,29.88,West,271,15.0,25.0,50,-99.99,,,-99.99,2.400000,,2013-05-27 03:11:00,
2013-05-26 21:21:00,59.0,40.0,29.88,WNW,297,14.0,20.0,50,-99.99,,,-99.99,1.100000,,2013-05-27 03:21:00,
2013-05-26 21:33:00,56.0,41.0,29.88,West,275,8.0,11.0,55,-99.99,,,-99.99,0.300000,,2013-05-27 03:33:00,
2013-05-26 21:42:00,52.0,42.0,29.89,SSW,208,10.0,15.0,67,-99.99,,,-99.99,-0.100000,,2013-05-27 03:42:00,
2013-05-26 21:53:00,52.0,41.0,29.90,SSE,168,8.0,10.0,64,-99.99,,,-99.99,-0.100000,,2013-05-27 03:53:00,
2013-05-26 22:02:00,54.0,40.0,29.90,SSE,159,8.0,9.0,57,-99.99,,,-99.99,0.000000,,2013-05-27 04:02:00,
2013-05-26 22:12:00,54.0,39.0,29.90,SSE,163,8.0,10.0,55,-99.99,,,-99.99,-0.100000,,2013-05-27 04:12:00,
2013-05-26 22:22:00,53.0,39.0,29.90,South,183,6.0,8.0,60,-99.99,,,-99.99,-0.100000,,2013-05-27 04:22:00,
2013-05-26 22:33:00,50.0,40.0,29.90,SSW,193,7.0,8.0,66,-99.99,,,-99.99,0.000000,,2013-05-27 04:33:00,
2013-05-26 22:42:00,48.0,40.0,29.91,SSW,212,6.0,7.0,72,-99.99,,,-99.99,0.000000,,2013-05-27 04:42:00,
2013-05-26 22:52:00,47.0,40.0,29.92,SSW,200,5.0,7.0,75,-99.99,,,-99.99,0.100000,,2013-05-27 04:52:00,
2013-05-26 23:02:00,48.0,40.0,29.92,South,184,5.0,6.0,74,-99.99,,,-99.99,-0.100000,,2013-05-27 05:02:00,
2013-05-26 23:12:00,48.0,40.0,29.93,SW,220,5.0,7.0,71,-99.99,,,-99.99,-0.100000,,2013-05-27 05:12:00,
2013-05-26 23:21:00,49.0,40.0,29.93,SW,228,9.0,11.0,72,-99.99,,,-99.99,-0.100000,,2013-05-27 05:21:00,
2013-05-26 23:32:00,51.0,41.0,29.94,SW,222,14.0,17.0,68,-99.99,,,-99.99,-0.200000,,2013-05-27 05:32:00,
2013-05-26 23:41:00,51.0,41.0,29.94,SW,216,12.0,15.0,68,-99.99,,,-99.99,0.000000,,2013-05-27 05:41:00,
2013-05-26 23:52:00,52.0,41.0,29.96,SW,216,17.0,23.0,65,-99.99,,,-99.99,-0.200000,,2013-05-27 05:52:00,